Time;durP1;ratioP1;P1;durP2;ratioP2;P2;SDS_P1;SDS_P2;PMS_P1;PMS_P2;Temp;Humidity;BMP_temperature;BMP_pressure;BME280_temperature;BME280_humidity;BME280_pressure;Samples;Min_cycle;Max_cycle;Signal;HPM_P1;HPM_P2
2022/01/04 00:00:27;;;;;;;8.65;3.95;;;;;;;5.82;84.03;96684.53;5045944;28;20566;-64
2022/01/04 00:02:53;;;;;;;11.23;4.45;;;;;;;6.41;84.53;96789.16;5045114;28;20053;-68
2022/01/04 00:05:20;;;;;;;13.27;4.47;;;;;;;6.23;86.29;96794.13;5046501;28;20139;-66
2022/01/04 00:07:47;;;;;;;10.32;3.50;;;;;;;5.82;85.68;96723.00;5046417;28;20053;-63
2022/01/04 00:10:20;;;;;;;9.57;3.88;;;;;;;6.21;86.73;96795.66;5045102;28;20049;-64
2022/01/04 00:15:34;;;;;;;7.80;3.40;;;;;;;6.25;87.20;96791.03;5045751;28;20119;-64
2022/01/04 00:18:02;;;;;;;6.78;2.75;;;;;;;6.24;85.64;96790.25;5046104;28;20053;-65
2022/01/04 00:20:29;;;;;;;14.82;5.32;;;;;;;5.79;86.99;96745.66;5045759;28;20057;-63
2022/01/04 00:22:56;;;;;;;20.13;6.72;;;;;;;5.98;87.47;96776.09;5046147;28;20060;-64
2022/01/04 00:25:22;;;;;;;13.85;5.45;;;;;;;6.02;86.58;96788.81;5044742;28;20128;-62
2022/01/04 00:27:49;;;;;;;19.58;8.52;;;;;;;6.21;85.19;96785.47;5046425;28;20601;-62
2022/01/04 00:30:16;;;;;;;11.82;5.85;;;;;;;5.61;86.92;96716.84;5033283;28;20410;-65
2022/01/04 00:32:43;;;;;;;15.02;6.38;;;;;;;6.12;86.93;96782.84;5024956;28;20053;-64
2022/01/04 00:35:09;;;;;;;21.85;6.68;;;;;;;5.94;87.63;96780.72;5025846;28;20061;-63
2022/01/04 00:37:36;;;;;;;25.75;9.60;;;;;;;5.39;88.13;96720.88;5025661;28;20053;-62
2022/01/04 00:40:07;;;;;;;22.05;7.90;;;;;;;5.67;89.32;96771.22;5024223;28;20061;-63
2022/01/04 00:42:34;;;;;;;20.20;7.55;;;;;;;5.47;89.15;96741.91;5024629;28;20494;-66
2022/01/04 00:45:00;;;;;;;22.25;8.77;;;;;;;5.35;88.57;96724.66;5023891;28;20441;-65
2022/01/04 00:47:40;;;;;;;15.20;6.43;;;;;;;4.35;92.27;96650.41;5025097;28;20138;-64
2022/01/04 00:50:07;;;;;;;19.25;6.82;;;;;;;5.01;93.31;96736.09;5023708;28;20055;-63
2022/01/04 00:52:34;;;;;;;12.68;5.43;;;;;;;4.26;92.06;96606.66;5025896;28;20049;-65
2022/01/04 00:55:01;;;;;;;13.63;6.00;;;;;;;5.40;91.43;96777.41;5025595;28;20063;-63
2022/01/04 00:57:27;;;;;;;12.07;5.70;;;;;;;4.92;91.76;96710.69;5025440;28;20524;-63
2022/01/04 00:59:54;;;;;;;15.02;5.57;;;;;;;5.32;93.04;96780.25;5025575;28;20095;-64
2022/01/04 01:02:21;;;;;;;22.00;6.57;;;;;;;4.60;93.11;96677.53;5025383;28;20406;-63
2022/01/04 01:04:48;;;;;;;24.58;10.23;;;;;;;5.16;92.57;96757.38;5025385;28;20145;-63
2022/01/04 01:07:15;;;;;;;22.73;8.77;;;;;;;4.96;92.68;96756.34;5024203;28;20056;-64
2022/01/04 01:09:55;;;;;;;20.13;8.18;;;;;;;4.85;95.07;96781.81;5026158;28;20057;-65
2022/01/04 01:12:22;;;;;;;19.90;7.18;;;;;;;5.03;94.63;96788.69;5025809;28;20056;-64
2022/01/04 01:14:49;;;;;;;21.80;7.63;;;;;;;4.24;93.51;96720.50;5023646;28;20061;-63
2022/01/04 01:17:15;;;;;;;16.67;7.18;;;;;;;4.97;93.88;96779.09;5024831;28;20404;-62
2022/01/04 01:19:42;;;;;;;17.13;7.45;;;;;;;4.44;95.43;96695.78;5025024;28;20061;-64
2022/01/04 01:22:09;;;;;;;21.20;7.55;;;;;;;3.86;95.41;96597.41;5024970;28;20515;-65
2022/01/04 01:24:35;;;;;;;18.10;7.28;;;;;;;4.97;95.83;96768.09;5023567;28;20073;-63
2022/01/04 01:27:02;;;;;;;24.52;10.60;;;;;;;4.39;95.49;96692.47;5023663;28;20061;-64
2022/01/04 01:29:29;;;;;;;19.58;7.35;;;;;;;4.28;96.03;96696.78;5030196;28;20067;-62
2022/01/04 01:31:56;;;;;;;20.83;6.25;;;;;;;4.50;96.67;96765.69;5043756;28;20136;-63
2022/01/04 01:34:23;;;;;;;19.67;6.55;;;;;;;4.53;97.21;96759.56;5042967;28;20321;-62
2022/01/04 01:36:50;;;;;;;29.23;11.20;;;;;;;4.41;98.61;96748.53;5044660;28;20048;-62
2022/01/04 01:39:17;;;;;;;18.63;7.63;;;;;;;4.61;97.15;96772.41;5044492;28;20064;-63
2022/01/04 01:41:43;;;;;;;14.32;5.88;;;;;;;4.36;98.48;96776.16;5044305;28;20056;-62
2022/01/04 01:44:10;;;;;;;16.92;5.78;;;;;;;4.46;98.47;96759.31;5044365;28;20056;-64
2022/01/04 01:46:37;;;;;;;17.00;6.47;;;;;;;2.59;98.64;96459.84;5044320;28;20049;-65
2022/01/04 01:49:03;;;;;;;21.23;7.88;;;;;;;4.37;99.44;96780.53;5044199;28;20056;-62
2022/01/04 01:51:35;;;;;;;15.68;6.85;;;;;;;4.42;99.68;96777.59;5044987;28;20057;-63
2022/01/04 01:54:02;;;;;;;22.00;9.63;;;;;;;4.51;99.72;96745.38;5044181;28;20052;-64
2022/01/04 01:56:29;;;;;;;38.03;15.93;;;;;;;4.50;99.75;96768.44;5044241;28;20550;-65
2022/01/04 01:58:56;;;;;;;28.45;11.57;;;;;;;4.55;97.82;96767.47;5043847;28;20051;-64
2022/01/04 02:01:23;;;;;;;23.77;9.93;;;;;;;4.29;97.37;96710.13;5043946;28;20059;-64
2022/01/04 02:03:50;;;;;;;24.27;9.80;;;;;;;4.58;98.18;96742.88;5044522;28;20057;-64
2022/01/04 02:06:18;;;;;;;22.98;9.65;;;;;;;4.51;97.76;96728.94;5044313;28;20099;-63
2022/01/04 02:08:45;;;;;;;23.15;11.63;;;;;;;4.86;95.36;96769.69;5042866;28;20055;-64
2022/01/04 02:11:12;;;;;;;25.13;11.00;;;;;;;4.84;95.10;96769.25;5044086;28;20526;-66
2022/01/04 02:13:39;;;;;;;24.42;9.43;;;;;;;4.27;95.54;96697.88;5042843;28;20053;-64
2022/01/04 02:16:10;;;;;;;22.55;9.48;;;;;;;4.71;96.36;96753.91;5043538;28;20061;-63
2022/01/04 02:18:37;;;;;;;28.38;10.60;;;;;;;4.39;95.38;96709.69;5043450;28;20748;-63
2022/01/04 02:21:03;;;;;;;18.10;7.38;;;;;;;4.66;94.50;96769.41;5043698;28;20063;-63
2022/01/04 02:23:30;;;;;;;19.02;8.10;;;;;;;4.65;95.88;96761.53;5043882;28;20132;-63
2022/01/04 02:25:58;;;;;;;25.10;9.70;;;;;;;4.32;95.77;96714.94;5043724;28;20053;-63
2022/01/04 02:28:25;;;;;;;16.60;8.35;;;;;;;4.45;95.72;96752.22;5043764;28;20061;-62
2022/01/04 02:30:51;;;;;;;18.08;6.78;;;;;;;4.55;94.92;96767.47;5025909;28;20444;-63
2022/01/04 02:33:18;;;;;;;19.85;7.10;;;;;;;4.18;94.47;96714.44;5022444;28;20056;-63
2022/01/04 02:35:45;;;;;;;16.90;7.65;;;;;;;4.04;94.85;96692.00;5022066;28;20436;-63
2022/01/04 02:38:11;;;;;;;23.17;10.13;;;;;;;4.44;96.46;96783.50;5022163;28;20053;-62
2022/01/04 02:40:39;;;;;;;19.42;8.52;;;;;;;4.53;95.94;96765.06;5023456;28;20056;-63
2022/01/04 02:43:05;;;;;;;24.80;9.38;;;;;;;4.59;94.96;96769.19;5022350;28;20413;-64
2022/01/04 02:45:32;;;;;;;22.65;9.82;;;;;;;4.55;93.22;96776.47;5023756;28;20045;-63
2022/01/04 02:47:59;;;;;;;29.75;11.93;;;;;;;4.51;94.05;96772.81;5023585;28;20050;-63
2022/01/04 02:50:26;;;;;;;25.00;10.40;;;;;;;4.55;95.28;96768.25;5023260;28;20063;-63
2022/01/04 02:52:53;;;;;;;22.33;9.48;;;;;;;4.51;95.20;96792.00;5023327;28;20061;-63
2022/01/04 02:55:20;;;;;;;21.70;8.98;;;;;;;4.21;94.05;96716.50;5023276;28;20531;-63
2022/01/04 02:57:47;;;;;;;17.35;8.48;;;;;;;4.22;94.04;96733.75;5023369;28;20543;-64
2022/01/04 03:00:16;;;;;;;17.23;5.82;;;;;;;4.55;94.65;96773.72;5021791;28;20057;-62
2022/01/04 03:02:43;;;;;;;12.50;5.10;;;;;;;4.49;94.23;96796.22;5022579;28;20045;-65
2022/01/04 03:05:11;;;;;;;9.43;4.18;;;;;;;4.01;94.63;96742.00;5023674;28;20155;-65
2022/01/04 03:07:38;;;;;;;14.32;4.65;;;;;;;4.33;95.11;96781.53;5023858;28;20057;-62
2022/01/04 03:10:06;;;;;;;9.48;4.07;;;;;;;4.21;94.90;96763.09;5024503;28;20053;-64
2022/01/04 03:12:34;;;;;;;9.35;3.38;;;;;;;3.98;93.94;96739.13;5027284;28;20069;-64
2022/01/04 03:15:03;;;;;;;10.48;3.63;;;;;;;4.22;94.36;96774.88;5027238;28;20053;-63
2022/01/04 03:17:29;;;;;;;10.77;3.38;;;;;;;3.93;94.18;96736.59;5027595;28;20071;-63
2022/01/04 03:19:56;;;;;;;12.23;4.35;;;;;;;3.87;93.87;96727.75;5027102;28;20588;-64
2022/01/04 03:22:23;;;;;;;10.18;4.07;;;;;;;4.35;92.13;96795.69;5027833;28;20050;-64
2022/01/04 03:24:49;;;;;;;9.48;3.75;;;;;;;4.31;90.83;96778.34;5027212;28;20072;-64
2022/01/04 03:27:18;;;;;;;10.95;3.42;;;;;;;4.42;91.29;96791.28;5027328;28;20152;-64
2022/01/04 03:29:45;;;;;;;7.25;2.75;;;;;;;4.35;91.15;96785.53;5034046;28;20409;-65
2022/01/04 03:32:11;;;;;;;6.00;1.85;;;;;;;4.42;90.61;96783.06;5047026;28;20056;-64
2022/01/04 03:34:38;;;;;;;7.32;2.53;;;;;;;4.24;89.42;96767.09;5047304;28;20526;-64
2022/01/04 03:37:05;;;;;;;8.45;3.20;;;;;;;4.49;89.05;96801.69;5047352;28;20052;-62
2022/01/04 03:39:31;;;;;;;7.68;2.75;;;;;;;4.59;88.15;96806.75;5045862;28;20059;-63
2022/01/04 03:41:59;;;;;;;11.30;4.00;;;;;;;4.20;88.74;96755.22;5047447;28;20126;-64
2022/01/04 03:44:26;;;;;;;9.93;4.13;;;;;;;4.27;89.85;96793.84;5046803;28;20049;-63
2022/01/04 03:46:56;;;;;;;12.90;5.50;;;;;;;4.43;88.76;96809.34;5047117;28;20057;-64
2022/01/04 03:49:23;;;;;;;11.02;4.43;;;;;;;4.36;88.88;96802.81;5046847;28;20071;-64
2022/01/04 03:51:50;;;;;;;20.38;6.45;;;;;;;4.29;89.52;96780.59;5047061;28;20056;-63
2022/01/04 03:54:17;;;;;;;12.50;3.85;;;;;;;4.35;87.39;96771.84;5046964;28;20681;-62
2022/01/04 03:56:44;;;;;;;11.23;4.05;;;;;;;4.48;87.31;96783.66;5045269;28;20045;-64
2022/01/04 03:59:10;;;;;;;23.85;7.38;;;;;;;4.74;86.08;96797.09;5046530;28;20060;-62
2022/01/04 04:01:37;;;;;;;13.20;5.22;;;;;;;4.76;86.46;96817.56;5045055;28;20059;-65
2022/01/04 04:04:04;;;;;;;10.27;4.18;;;;;;;4.29;88.08;96778.66;5044982;28;20049;-66
2022/01/04 04:06:31;;;;;;;14.73;5.22;;;;;;;4.51;88.82;96808.47;5045089;28;20410;-62
2022/01/04 04:08:58;;;;;;;16.42;5.90;;;;;;;4.54;89.38;96815.19;5046131;28;20049;-63
2022/01/04 04:11:25;;;;;;;140.43;30.80;;;;;;;4.13;88.80;96783.16;5046181;28;20056;-63
2022/01/04 04:13:52;;;;;;;41.42;12.45;;;;;;;4.38;90.71;96819.69;5045501;28;20152;-64
2022/01/04 04:16:19;;;;;;;25.70;8.07;;;;;;;4.37;89.43;96816.19;5045186;28;20063;-63
2022/01/04 04:18:46;;;;;;;18.00;6.60;;;;;;;0.53;88.56;96223.94;5046163;28;20052;-64
2022/01/04 04:21:12;;;;;;;13.23;4.63;;;;;;;4.28;87.97;96831.88;5044475;28;20072;-64
2022/01/04 04:23:39;;;;;;;12.40;3.97;;;;;;;4.15;89.71;96812.97;5045792;28;20061;-63
2022/01/04 04:26:07;;;;;;;14.48;4.50;;;;;;;4.13;89.90;96818.78;5046030;28;20057;-63
2022/01/04 04:28:34;;;;;;;9.95;3.20;;;;;;;4.04;89.91;96820.81;5045843;28;20053;-64
2022/01/04 04:31:03;;;;;;;6.22;2.58;;;;;;;4.02;89.77;96814.84;5027723;28;20499;-64
2022/01/04 04:33:30;;;;;;;11.57;4.30;;;;;;;4.02;90.33;96825.00;5025566;28;20084;-64
2022/01/04 04:35:57;;;;;;;7.28;3.92;;;;;;;3.72;90.31;96783.16;5025982;28;20122;-64
2022/01/04 04:38:23;;;;;;;70.30;24.98;;;;;;;1.09;90.59;96366.09;5025721;28;20467;-63
2022/01/04 04:40:50;;;;;;;13.82;6.13;;;;;;;3.41;90.72;96859.38;5025728;28;20057;-66
2022/01/04 04:43:17;;;;;;;9.90;2.83;;;;;;;3.51;89.94;96763.16;5025943;28;20447;-64
2022/01/04 04:45:43;;;;;;;7.15;3.03;;;;;;;3.58;90.96;96777.13;5024081;28;20435;-65
2022/01/04 04:48:10;;;;;;;14.18;5.75;;;;;;;3.95;90.75;96831.00;5026014;28;20064;-62
2022/01/04 04:50:37;;;;;;;7.45;2.85;;;;;;;3.80;90.37;96839.81;5024907;28;20056;-65
2022/01/04 04:53:03;;;;;;;6.68;2.85;;;;;;;3.98;89.57;96857.72;5025692;28;20516;-63
2022/01/04 04:55:30;;;;;;;10.57;3.55;;;;;;;3.59;89.22;96784.19;5023892;28;20045;-64
2022/01/04 04:57:57;;;;;;;8.90;2.90;;;;;;;3.90;88.71;96850.41;5025086;28;20053;-65
2022/01/04 05:00:24;;;;;;;6.05;3.08;;;;;;;4.05;88.72;96877.19;5025126;28;20447;-62
2022/01/04 05:02:51;;;;;;;10.30;3.95;;;;;;;3.94;88.17;96851.31;5025440;28;20050;-66
2022/01/04 05:05:17;;;;;;;9.43;3.80;;;;;;;3.78;88.75;96825.63;5025389;28;20072;-64
2022/01/04 05:07:44;;;;;;;22.00;9.40;;;;;;;3.75;89.86;96809.88;5025340;28;20049;-64
2022/01/04 05:10:11;;;;;;;24.50;10.80;;;;;;;3.80;89.97;96871.88;5025423;28;20053;-63
2022/01/04 05:12:38;;;;;;;21.30;8.98;;;;;;;3.54;89.95;96797.28;5026148;28;20443;-65
2022/01/04 05:15:05;;;;;;;15.55;4.88;;;;;;;3.57;90.69;96835.78;5023572;28;20305;-64
2022/01/04 05:17:31;;;;;;;8.82;3.35;;;;;;;3.59;91.53;96844.44;5025152;28;20050;-62
2022/01/04 05:19:58;;;;;;;7.65;2.72;;;;;;;3.60;91.30;96824.16;5023771;28;20049;-64
2022/01/04 05:22:25;;;;;;;6.93;3.20;;;;;;;3.69;90.89;96859.69;5025041;28;20053;-63
2022/01/04 05:24:52;;;;;;;11.65;3.35;;;;;;;2.82;91.14;96709.94;5023371;28;20059;-64
2022/01/04 05:27:19;;;;;;;9.05;5.45;;;;;;;3.66;90.71;96855.69;5023509;28;20554;-64
2022/01/04 05:29:45;;;;;;;9.35;5.03;;;;;;;3.57;90.63;96849.47;5030806;28;20535;-64
2022/01/04 05:32:12;;;;;;;10.55;4.25;;;;;;;3.60;91.59;96862.50;5044774;28;20510;-65
2022/01/04 05:34:39;;;;;;;49.03;20.35;;;;;;;2.79;88.34;96724.28;5043191;28;20049;-63
2022/01/04 05:37:06;;;;;;;106.30;40.20;;;;;;;3.34;88.02;96815.25;5044400;28;20057;-63
2022/01/04 05:39:33;;;;;;;117.38;44.53;;;;;;;3.74;89.45;96874.00;5043020;28;20467;-65
2022/01/04 05:42:00;;;;;;;71.97;31.50;;;;;;;3.84;87.85;96873.63;5044205;28;20071;-62
2022/01/04 05:44:27;;;;;;;57.28;19.75;;;;;;;3.79;87.66;96876.56;5042862;28;20713;-62
2022/01/04 05:46:53;;;;;;;56.00;22.42;;;;;;;3.65;89.80;96881.44;5042820;28;20048;-65
2022/01/04 05:49:20;;;;;;;40.08;18.48;;;;;;;3.01;89.56;96800.59;5009693;28;20108;-63
2022/01/04 05:51:47;;;;;;;36.38;15.80;;;;;;;2.42;89.34;96700.47;5011673;28;20062;-63
2022/01/04 05:54:14;;;;;;;61.70;21.27;;;;;;;2.65;89.94;96745.56;5011599;28;20057;-65
2022/01/04 05:56:40;;;;;;;76.80;32.00;;;;;;;3.51;89.94;96875.41;5021367;28;20060;-63
2022/01/04 05:59:07;;;;;;;72.45;31.17;;;;;;;3.21;89.20;96851.84;5023631;28;20050;-62
2022/01/04 06:01:34;;;;;;;68.38;29.48;;;;;;;3.35;89.28;96838.75;5024255;28;20049;-63
2022/01/04 06:04:01;;;;;;;56.50;24.17;;;;;;;3.70;88.50;96875.78;5024004;28;20160;-65
2022/01/04 06:06:27;;;;;;;74.07;35.55;;;;;;;2.64;89.84;96701.00;5024462;28;20049;-62
2022/01/04 06:08:54;;;;;;;75.85;34.83;;;;;;;3.78;90.72;96874.94;5005106;28;20045;-62
2022/01/04 06:11:43;;;;;;;70.38;30.35;;;;;;;3.48;89.62;96832.25;5002608;28;20508;-62
2022/01/04 06:16:57;;;;;;;84.28;32.10;;;;;;;3.94;89.41;96884.19;5035510;28;20547;-62
2022/01/04 06:19:24;;;;;;;60.85;23.83;;;;;;;3.79;88.17;96842.88;5023339;28;20053;-62
2022/01/04 06:21:51;;;;;;;65.13;24.08;;;;;;;3.69;87.38;96805.72;5022321;28;20057;-65
2022/01/04 06:24:18;;;;;;;78.65;32.58;;;;;;;4.21;87.36;96893.84;5022479;28;20061;-63
2022/01/04 06:26:45;;;;;;;73.82;28.88;;;;;;;4.30;86.99;96859.75;5023385;28;20053;-63
2022/01/04 06:29:11;;;;;;;65.85;26.50;;;;;;;4.54;86.98;96881.03;5021855;28;20055;-62
2022/01/04 06:31:40;;;;;;;38.45;17.08;;;;;;;4.12;86.26;96819.94;5023551;28;20116;-63
2022/01/04 06:34:07;;;;;;;41.35;17.08;;;;;;;4.60;85.98;96885.97;5023097;28;20440;-63
2022/01/04 06:36:34;;;;;;;30.80;12.38;;;;;;;4.53;85.36;96902.19;5023518;28;20424;-63
2022/01/04 06:39:01;;;;;;;49.38;15.75;;;;;;;4.61;84.71;96904.06;5022201;28;20152;-67
2022/01/04 06:41:27;;;;;;;33.40;13.13;;;;;;;4.39;84.46;96865.97;5021509;28;20084;-67
2022/01/04 06:43:54;;;;;;;31.23;12.18;;;;;;;4.94;83.24;96906.00;5021604;28;21258;-68
2022/01/04 06:46:21;;;;;;;33.55;11.88;;;;;;;5.17;82.93;96899.78;5022707;28;20056;-67
2022/01/04 06:48:48;;;;;;;30.08;10.60;;;;;;;4.91;80.28;96851.78;4995683;28;20072;-63
2022/01/04 06:51:14;;;;;;;21.73;8.02;;;;;;;4.37;80.15;96772.31;5012764;28;20058;-62
2022/01/04 06:53:41;;;;;;;19.25;6.82;;;;;;;5.01;80.30;96863.13;5010527;28;20424;-60
2022/01/04 06:56:08;;;;;;;19.73;7.57;;;;;;;5.27;80.49;96898.56;5003447;28;20067;-63
2022/01/04 06:58:34;;;;;;;16.27;7.28;;;;;;;5.03;81.24;96860.06;5009088;28;20054;-63
2022/01/04 07:01:02;;;;;;;24.75;11.30;;;;;;;5.27;79.20;96854.63;5029462;28;20451;-64
2022/01/04 07:03:30;;;;;;;19.23;8.98;;;;;;;3.33;78.44;96545.44;5019368;28;20096;-62
2022/01/04 07:05:57;;;;;;;15.75;7.15;;;;;;;5.18;78.70;96794.34;5024811;28;20065;-62
2022/01/04 07:08:24;;;;;;;21.33;9.95;;;;;;;5.90;75.85;96884.22;5018438;28;20064;-63
2022/01/04 07:10:51;;;;;;;36.97;14.73;;;;;;;5.79;75.98;96826.16;5019090;28;20531;-68
2022/01/04 07:13:18;;;;;;;40.10;17.10;;;;;;;5.79;76.75;96811.59;5036039;28;20045;-62
2022/01/04 07:15:46;;;;;;;59.20;24.85;;;;;;;6.60;75.26;96919.44;5009013;28;20501;-64
2022/01/04 07:18:13;;;;;;;61.55;26.70;;;;;;;6.60;76.01;96927.72;5013795;28;20525;-62
2022/01/04 07:20:40;;;;;;;50.60;22.80;;;;;;;6.10;74.75;96831.09;5015084;28;20064;-61
2022/01/04 07:23:06;;;;;;;35.55;15.73;;;;;;;6.51;74.74;96882.22;5017608;28;20049;-66
2022/01/04 07:25:33;;;;;;;23.38;10.05;;;;;;;6.71;74.84;96926.06;5027083;28;20564;-60
2022/01/04 07:28:00;;;;;;;16.67;9.13;;;;;;;6.93;75.40;96944.00;5008986;28;20567;-63
2022/01/04 07:30:27;;;;;;;19.52;10.30;;;;;;;6.75;74.68;96891.19;5009033;28;20050;-62
2022/01/04 07:32:54;;;;;;;22.63;10.90;;;;;;;7.28;73.69;96928.50;5010256;28;20630;-60
2022/01/04 07:35:20;;;;;;;18.13;9.00;;;;;;;7.31;73.05;96912.06;5017182;28;20542;-64
2022/01/04 07:37:47;;;;;;;13.35;7.25;;;;;;;7.11;72.24;96868.22;5009454;28;20058;-67
2022/01/04 07:40:14;;;;;;;24.58;10.48;;;;;;;6.49;72.44;96818.47;5017572;28;20519;-63
2022/01/04 07:42:41;;;;;;;22.25;9.35;;;;;;;7.35;73.19;96912.94;5016939;28;20053;-63
2022/01/04 07:45:08;;;;;;;25.73;10.23;;;;;;;5.41;72.62;96531.03;5015317;28;20534;-62
2022/01/04 07:47:35;;;;;;;24.17;11.25;;;;;;;7.73;70.85;96852.53;5035065;28;20487;-62
2022/01/04 07:50:02;;;;;;;28.80;11.90;;;;;;;8.19;70.07;96885.94;5009242;28;20512;-63
2022/01/04 07:52:30;;;;;;;25.58;12.43;;;;;;;6.42;70.05;96599.00;5032622;28;20897;-62
2022/01/04 07:54:57;;;;;;;17.70;8.73;;;;;;;7.98;73.51;96841.31;5013489;28;20059;-67
2022/01/04 07:57:23;;;;;;;14.27;7.05;;;;;;;7.46;77.62;96885.69;5016673;28;20050;-61
2022/01/04 07:59:50;;;;;;;12.30;6.28;;;;;;;6.88;81.86;96887.25;5018361;28;20566;-64
2022/01/04 08:02:17;;;;;;;10.82;5.85;;;;;;;6.96;82.00;96878.03;5015524;28;20076;-62
2022/01/04 08:04:44;;;;;;;13.52;6.88;;;;;;;6.11;82.34;96805.19;5005944;28;20049;-66
2022/01/04 08:07:10;;;;;;;20.23;7.05;;;;;;;6.50;81.29;96803.56;5017311;28;20057;-63
2022/01/04 08:09:37;;;;;;;16.25;7.22;;;;;;;7.08;80.27;96891.72;5007793;28;20057;-65
2022/01/04 08:12:04;;;;;;;14.02;7.35;;;;;;;7.49;78.73;96891.28;5013525;28;20492;-62
2022/01/04 08:14:31;;;;;;;14.68;7.55;;;;;;;7.20;77.82;96783.47;5017595;28;20041;-65
2022/01/04 08:17:02;;;;;;;15.32;7.90;;;;;;;8.24;76.17;96893.94;5017335;28;20606;-62
2022/01/04 08:19:29;;;;;;;13.73;7.60;;;;;;;8.49;75.74;96898.88;5014291;28;20505;-65
2022/01/04 08:21:56;;;;;;;17.27;7.78;;;;;;;8.61;75.02;96860.13;5023474;28;20057;-62
2022/01/04 08:24:23;;;;;;;19.52;8.18;;;;;;;8.78;73.00;96848.66;5015171;28;20046;-60
2022/01/04 08:26:50;;;;;;;19.05;10.23;;;;;;;9.33;72.02;96880.50;5016012;28;20060;-67
2022/01/04 08:29:17;;;;;;;32.03;14.45;;;;;;;9.26;71.02;96827.88;5015098;28;20527;-60
2022/01/04 08:31:44;;;;;;;37.50;16.58;;;;;;;8.90;69.31;96734.44;5031092;28;20042;-59
2022/01/04 08:34:11;;;;;;;43.60;18.55;;;;;;;10.08;66.97;96883.47;5006089;28;20041;-64
2022/01/04 08:36:39;;;;;;;40.08;17.25;;;;;;;9.82;66.34;96787.34;5013480;28;20050;-61
2022/01/04 08:39:08;;;;;;;34.67;15.50;;;;;;;10.66;65.19;96871.69;5014469;28;20172;-64
2022/01/04 08:41:36;;;;;;;24.45;9.93;;;;;;;10.88;62.41;96866.41;5013259;28;20049;-60
2022/01/04 08:44:08;;;;;;;18.15;9.38;;;;;;;11.06;58.41;96879.34;5016794;28;20057;-62
2022/01/04 08:46:36;;;;;;;22.00;11.55;;;;;;;10.81;58.76;96788.75;5015973;28;20054;-66
2022/01/04 08:49:09;;;;;;;18.20;9.27;;;;;;;11.59;57.96;96868.81;5014130;28;20340;-60
2022/01/04 08:51:36;;;;;;;22.48;11.95;;;;;;;10.26;56.70;96602.97;5010019;28;20050;-63
2022/01/04 08:54:05;;;;;;;24.67;11.40;;;;;;;11.90;56.50;96829.53;5014418;28;20046;-61
2022/01/04 08:56:33;;;;;;;26.73;14.30;;;;;;;12.20;51.83;96855.16;5010912;28;20049;-60
2022/01/04 08:59:00;;;;;;;24.90;12.60;;;;;;;11.39;52.45;96748.19;5010719;28;20080;-59
2022/01/04 09:01:27;;;;;;;22.27;11.48;;;;;;;12.37;52.58;96843.34;5022359;28;20056;-63
2022/01/04 09:03:54;;;;;;;23.52;12.35;;;;;;;12.55;51.52;96838.69;5015104;28;20045;-63
2022/01/04 09:06:22;;;;;;;24.45;12.80;;;;;;;12.43;51.74;96797.38;5020035;28;20116;-61
2022/01/04 09:08:50;;;;;;;24.77;11.13;;;;;;;11.46;51.43;96635.31;5015550;28;20060;-65
2022/01/04 09:11:21;;;;;;;18.88;9.93;;;;;;;13.01;50.48;96817.53;5013656;28;20042;-62
2022/01/04 09:13:50;;;;;;;18.17;9.38;;;;;;;12.91;50.02;96784.91;5018513;28;20479;-62
2022/01/04 09:18:48;;;;;;;13.00;7.50;;;;;;;13.22;47.81;96767.53;5016059;28;20058;-66
2022/01/04 09:21:25;;;;;;;12.15;6.25;;;;;;;13.25;48.59;96705.56;5013185;28;20064;-61
2022/01/04 09:23:55;;;;;;;9.05;4.75;;;;;;;14.05;46.90;96792.25;5012310;28;20058;-67
2022/01/04 09:26:23;;;;;;;9.05;5.28;;;;;;;14.09;45.47;96749.28;5010059;28;20045;-63
2022/01/04 09:28:50;;;;;;;9.60;5.00;;;;;;;14.11;44.47;96741.31;5011280;28;20069;-60
2022/01/04 09:31:21;;;;;;;8.38;3.50;;;;;;;13.73;43.10;96641.13;5016519;28;20056;-68
2022/01/04 09:33:50;;;;;;;7.22;3.70;;;;;;;14.71;42.32;96783.00;5019721;28;20492;-66
2022/01/04 09:36:27;;;;;;;4.60;3.40;;;;;;;14.87;42.54;96769.41;5021128;28;20273;-67
2022/01/04 09:38:54;;;;;;;7.20;4.43;;;;;;;14.63;43.17;96753.56;5021840;28;20053;-61
2022/01/04 09:41:21;;;;;;;7.55;3.80;;;;;;;14.03;43.50;96616.41;5014677;28;20053;-65
2022/01/04 09:43:49;;;;;;;7.75;5.03;;;;;;;15.02;43.54;96765.31;5016530;28;20484;-66
2022/01/04 09:46:16;;;;;;;8.10;4.68;;;;;;;14.64;42.41;96665.91;5017163;28;20132;-60
2022/01/04 09:48:43;;;;;;;7.40;4.13;;;;;;;15.41;43.64;96757.59;5013235;28;20046;-59
2022/01/04 09:51:12;;;;;;;7.63;4.43;;;;;;;15.48;44.21;96756.72;5019804;28;20428;-59
2022/01/04 09:53:39;;;;;;;6.63;4.57;;;;;;;15.12;44.14;96661.25;5015523;28;20317;-61
2022/01/04 09:56:07;;;;;;;8.50;4.43;;;;;;;14.79;41.77;96636.78;5014067;28;20061;-66
2022/01/04 09:58:34;;;;;;;4.93;3.88;;;;;;;15.73;41.83;96758.13;5010056;28;20522;-64
2022/01/04 10:01:01;;;;;;;6.07;3.88;;;;;;;15.14;43.07;96642.13;5009301;28;20151;-60
2022/01/04 10:03:30;;;;;;;13.85;6.20;;;;;;;15.64;42.59;96738.28;5019743;28;20543;-61
2022/01/04 10:06:15;;;;;;;5.13;3.85;;;;;;;15.66;42.63;96740.66;5014605;28;20057;-60
2022/01/04 10:09:04;;;;;;;3.90;3.15;;;;;;;15.31;43.45;96741.66;5012324;28;20049;-62
2022/01/04 10:11:39;;;;;;;4.72;2.72;;;;;;;15.61;42.75;96722.34;5006930;28;20429;-67
2022/01/04 10:14:27;;;;;;;2.58;2.38;;;;;;;15.54;42.77;96727.97;5018685;28;20057;-62
2022/01/04 10:16:58;;;;;;;7.88;2.78;;;;;;;15.78;43.08;96731.75;5004151;28;20092;-63
2022/01/04 10:19:36;;;;;;;5.60;3.08;;;;;;;15.67;42.39;96731.84;5003822;28;20100;-63
2022/01/04 10:22:18;;;;;;;1.95;1.85;;;;;;;15.88;41.89;96725.31;5004106;28;20079;-62
2022/01/04 10:24:48;;;;;;;3.67;2.17;;;;;;;15.58;42.62;96717.56;5003729;28;20054;-65
2022/01/04 10:27:29;;;;;;;2.60;2.00;;;;;;;15.79;42.19;96711.78;5018751;28;20084;-65
2022/01/04 10:30:15;;;;;;;2.47;2.28;;;;;;;15.95;43.00;96698.09;5004124;28;20065;-65
2022/01/04 10:32:53;;;;;;;5.28;3.08;;;;;;;16.03;42.77;96688.44;5018714;28;20054;-62
2022/01/04 10:35:34;;;;;;;3.22;2.53;;;;;;;16.09;42.68;96692.34;5018044;28;20062;-62
2022/01/04 10:38:21;;;;;;;3.00;2.80;;;;;;;16.23;41.70;96686.63;5003306;28;20527;-61
2022/01/04 10:40:51;;;;;;;1.85;1.60;;;;;;;15.81;41.88;96625.59;5018429;28;20053;-65
2022/01/04 10:43:21;;;;;;;4.20;2.22;;;;;;;16.18;42.44;96687.09;5019767;28;20443;-65
2022/01/04 10:45:49;;;;;;;3.03;2.13;;;;;;;15.92;42.68;96625.50;5023327;28;20045;-64
2022/01/04 10:48:21;;;;;;;7.97;2.65;;;;;;;16.55;41.70;96670.31;5022924;28;20049;-67
2022/01/04 10:50:49;;;;;;;3.50;1.85;;;;;;;16.61;41.47;96668.63;5022025;28;20058;-65
2022/01/04 10:53:17;;;;;;;2.75;2.33;;;;;;;16.63;41.36;96670.25;5021633;28;20068;-66
2022/01/04 10:55:46;;;;;;;2.50;2.30;;;;;;;16.76;40.57;96662.84;5019416;28;20045;-60
2022/01/04 10:58:22;;;;;;;3.28;2.08;;;;;;;16.88;40.41;96667.91;5010142;28;20141;-61
2022/01/04 11:00:52;;;;;;;2.63;2.15;;;;;;;16.78;40.11;96650.03;5014708;28;20050;-60
2022/01/04 11:03:30;;;;;;;2.92;2.20;;;;;;;16.92;40.02;96665.84;5009661;28;20677;-68
2022/01/04 11:06:22;;;;;;;4.07;2.97;;;;;;;17.03;39.67;96655.28;5024705;28;20064;-68
2022/01/04 11:08:49;;;;;;;2.97;2.25;;;;;;;17.09;39.42;96648.00;5001514;28;20141;-60
2022/01/04 11:11:16;;;;;;;1.70;1.60;;;;;;;15.90;37.74;96511.38;5011623;28;20488;-61
2022/01/04 11:13:43;;;;;;;2.05;1.90;;;;;;;16.67;38.24;96656.97;5014686;28;20060;-68
2022/01/04 11:16:10;;;;;;;2.40;2.28;;;;;;;16.94;37.67;96663.41;5012117;28;20076;-65
2022/01/04 11:18:41;;;;;;;12.85;6.65;;;;;;;16.83;37.35;96699.13;5010588;28;20244;-70
2022/01/04 11:21:13;;;;;;;10.68;3.33;;;;;;;16.55;38.27;96603.19;5027530;28;20050;-62
2022/01/04 11:23:41;;;;;;;10.18;4.20;;;;;;;16.44;39.59;96636.09;5031199;28;20062;-68
2022/01/04 11:26:11;;;;;;;5.57;3.45;;;;;;;15.49;40.56;96513.44;5017205;28;20050;-69
2022/01/04 11:28:43;;;;;;;4.28;3.28;;;;;;;16.11;40.79;96634.06;5024913;28;20083;-66
2022/01/04 11:31:19;;;;;;;2.60;2.20;;;;;;;16.10;40.72;96632.50;5026433;28;20146;-66
2022/01/04 11:33:54;;;;;;;4.75;2.58;;;;;;;13.71;41.00;96254.66;5007104;28;20486;-65
2022/01/04 11:36:21;;;;;;;6.22;3.15;;;;;;;15.91;41.71;96629.50;5016554;28;20077;-61
2022/01/04 11:38:48;;;;;;;3.95;2.60;;;;;;;15.01;40.99;96482.84;5020483;28;20069;-61
2022/01/04 11:41:25;;;;;;;2.20;2.00;;;;;;;16.17;40.02;96626.81;5014155;28;20080;-62
2022/01/04 11:43:52;;;;;;;2.47;2.28;;;;;;;15.57;40.08;96581.97;5018429;28;20557;-61